Time;durP1;ratioP1;P1;durP2;ratioP2;P2;SDS_P1;SDS_P2;PMS_P1;PMS_P2;Temp;Humidity;BMP_temperature;BMP_pressure;BME280_temperature;BME280_humidity;BME280_pressure;Samples;Min_cycle;Max_cycle;Signal;HPM_P1;HPM_P2
2022/10/08 00:00:54;;;;;;;;;;;13.30;99.90;;;;;;4991522;28;19926;-68
2022/10/08 00:03:21;;;;;;;;;;;13.30;99.90;;;;;;4992351;28;20034;-66
2022/10/08 00:05:55;;;;;;;;;;;13.20;99.90;;;;;;4992114;28;20096;-66
2022/10/08 00:08:21;;;;;;;;;;;13.20;99.90;;;;;;4991226;28;20025;-66
2022/10/08 00:10:57;;;;;;;;;;;13.20;99.90;;;;;;4974946;28;19983;-64
2022/10/08 00:13:24;;;;;;;;;;;13.20;99.90;;;;;;4991278;28;20286;-66
2022/10/08 00:15:49;;;;;;;;;;;13.10;99.90;;;;;;4991629;28;19979;-66
2022/10/08 00:18:15;;;;;;;;;;;13.20;99.90;;;;;;4990945;28;20332;-66
2022/10/08 00:20:42;;;;;;;;;;;13.10;99.90;;;;;;4988929;28;19975;-66
2022/10/08 00:23:07;;;;;;;;;;;13.10;99.90;;;;;;4992073;28;19929;-66
2022/10/08 00:25:41;;;;;;;;;;;13.10;99.90;;;;;;4991619;28;19926;-66
2022/10/08 00:28:10;;;;;;;;;;;13.20;99.90;;;;;;4990736;28;19930;-66
2022/10/08 00:30:36;;;;;;;;;;;13.10;99.90;;;;;;4991459;28;19929;-66
2022/10/08 00:33:02;;;;;;;;;;;13.10;99.90;;;;;;4991779;28;20344;-66
2022/10/08 00:35:28;;;;;;;;;;;13.10;99.90;;;;;;4991986;28;19930;-66
2022/10/08 00:37:53;;;;;;;;;;;13.10;99.90;;;;;;4990326;28;19926;-66
2022/10/08 00:40:19;;;;;;;;;;;13.10;99.90;;;;;;4958568;28;20370;-66
2022/10/08 00:42:44;;;;;;;;;;;13.10;99.90;;;;;;4991438;28;19926;-66
2022/10/08 00:45:10;;;;;;;;;;;13.10;99.90;;;;;;4991905;28;19925;-66
2022/10/08 00:47:44;;;;;;;;;;;13.10;99.90;;;;;;4991102;28;19930;-66
2022/10/08 00:50:09;;;;;;;;;;;13.10;99.90;;;;;;4991670;28;19947;-66
2022/10/08 00:52:41;;;;;;;;;;;13.00;99.90;;;;;;4989761;28;20009;-67
2022/10/08 00:55:06;;;;;;;;;;;13.10;99.90;;;;;;4991460;28;20393;-66
2022/10/08 00:57:33;;;;;;;;;;;13.00;99.90;;;;;;4990740;28;20012;-66
2022/10/08 01:00:04;;;;;;;;;;;13.00;99.90;;;;;;5023094;28;19925;-67
2022/10/08 01:02:29;;;;;;;;;;;13.00;99.90;;;;;;4991540;28;19926;-66
2022/10/08 01:04:56;;;;;;;;;;;13.00;99.90;;;;;;4991710;28;19930;-66
2022/10/08 01:07:25;;;;;;;;;;;13.00;99.90;;;;;;4991398;28;19981;-66
2022/10/08 01:09:54;;;;;;;;;;;13.00;99.90;;;;;;4973879;28;20371;-66
2022/10/08 01:12:21;;;;;;;;;;;13.00;99.90;;;;;;4990084;28;20020;-66
2022/10/08 01:14:55;;;;;;;;;;;13.00;99.90;;;;;;4990703;28;20386;-65
2022/10/08 01:17:23;;;;;;;;;;;13.00;99.90;;;;;;4991096;28;20382;-66
2022/10/08 01:20:03;;;;;;;;;;;13.00;99.90;;;;;;4990226;28;20382;-67
2022/10/08 01:22:47;;;;;;;;;;;13.00;99.90;;;;;;4990071;28;19949;-66
2022/10/08 01:25:31;;;;;;;;;;;13.00;99.90;;;;;;4989832;28;20360;-66
2022/10/08 01:28:01;;;;;;;;;;;13.00;99.90;;;;;;4989609;28;19984;-66
2022/10/08 01:30:28;;;;;;;;;;;13.00;99.90;;;;;;4973702;28;19926;-66
2022/10/08 01:32:57;;;;;;;;;;;13.00;99.90;;;;;;4990787;28;19948;-66
2022/10/08 01:35:25;;;;;;;;;;;12.90;99.90;;;;;;4991717;28;19926;-66
2022/10/08 01:37:54;;;;;;;;;;;12.90;99.90;;;;;;4991211;28;20356;-66
2022/10/08 01:40:23;;;;;;;;;;;12.90;99.90;;;;;;4991099;28;19925;-66
2022/10/08 01:42:50;;;;;;;;;;;12.90;99.90;;;;;;4990516;28;19926;-66
2022/10/08 01:45:19;;;;;;;;;;;12.90;99.90;;;;;;4990037;28;19929;-66
2022/10/08 01:47:46;;;;;;;;;;;12.80;99.90;;;;;;4989157;28;20378;-66
2022/10/08 01:50:14;;;;;;;;;;;12.80;99.90;;;;;;4990743;28;19987;-67
2022/10/08 01:52:46;;;;;;;;;;;13.00;99.90;;;;;;4990693;28;19926;-66
2022/10/08 01:55:15;;;;;;;;;;;12.70;99.90;;;;;;4989866;28;19985;-66
2022/10/08 01:57:42;;;;;;;;;;;12.70;99.90;;;;;;5022119;28;19926;-66
2022/10/08 02:00:09;;;;;;;;;;;12.60;99.90;;;;;;4990817;28;19949;-66
2022/10/08 02:02:35;;;;;;;;;;;12.60;99.90;;;;;;4990338;28;19930;-66
2022/10/08 02:05:02;;;;;;;;;;;12.60;99.90;;;;;;4990384;28;20282;-66
2022/10/08 02:07:29;;;;;;;;;;;12.50;99.90;;;;;;4990536;28;19925;-67
2022/10/08 02:10:01;;;;;;;;;;;12.40;99.90;;;;;;4989294;28;19969;-66
2022/10/08 02:12:26;;;;;;;;;;;12.40;99.90;;;;;;4989322;28;19929;-66
2022/10/08 02:14:53;;;;;;;;;;;12.50;99.90;;;;;;4989996;28;19926;-66
2022/10/08 02:17:19;;;;;;;;;;;12.40;99.90;;;;;;4990250;28;20413;-66
2022/10/08 02:19:53;;;;;;;;;;;12.30;99.90;;;;;;4990065;28;19926;-66
2022/10/08 02:22:21;;;;;;;;;;;12.30;99.90;;;;;;4990559;28;19932;-66
2022/10/08 02:25:07;;;;;;;;;;;12.30;99.90;;;;;;4989150;28;19930;-67
2022/10/08 02:27:39;;;;;;;;;;;12.30;99.90;;;;;;4988925;28;20074;-66
2022/10/08 02:30:07;;;;;;;;;;;12.20;99.90;;;;;;4990131;28;19926;-66
2022/10/08 02:32:41;;;;;;;;;;;12.20;99.90;;;;;;4990320;28;20387;-66
2022/10/08 02:35:17;;;;;;;;;;;12.20;99.90;;;;;;5021475;28;19932;-65
2022/10/08 02:37:46;;;;;;;;;;;12.10;99.90;;;;;;4990239;28;19932;-65
2022/10/08 02:40:14;;;;;;;;;;;12.10;99.90;;;;;;4988513;28;19926;-66
2022/10/08 02:42:43;;;;;;;;;;;12.10;99.90;;;;;;4991116;28;20272;-65
2022/10/08 02:45:15;;;;;;;;;;;12.10;99.90;;;;;;4993362;28;19926;-65
2022/10/08 02:47:42;;;;;;;;;;;12.00;99.90;;;;;;4993404;28;19932;-66
2022/10/08 02:50:10;;;;;;;;;;;12.00;99.90;;;;;;4991608;28;19926;-65
2022/10/08 02:52:38;;;;;;;;;;;12.00;99.90;;;;;;4993499;28;19929;-65
2022/10/08 02:55:09;;;;;;;;;;;12.00;99.90;;;;;;5024873;28;19933;-65
2022/10/08 02:57:43;;;;;;;;;;;12.00;99.90;;;;;;4993471;28;20287;-66
2022/10/08 03:00:09;;;;;;;;;;;11.90;99.90;;;;;;4992559;28;20416;-65
2022/10/08 03:02:38;;;;;;;;;;;11.90;99.90;;;;;;4993522;28;19929;-65
2022/10/08 03:05:06;;;;;;;;;;;11.90;99.90;;;;;;4992985;28;19926;-65
2022/10/08 03:07:33;;;;;;;;;;;11.90;99.90;;;;;;4992134;28;20306;-65
2022/10/08 03:10:04;;;;;;;;;;;11.90;99.90;;;;;;4991900;28;19926;-66
2022/10/08 03:12:31;;;;;;;;;;;11.90;99.90;;;;;;4993292;28;19930;-65
2022/10/08 03:14:56;;;;;;;;;;;11.80;99.90;;;;;;4991716;28;19926;-67
2022/10/08 03:17:25;;;;;;;;;;;11.80;99.90;;;;;;4993178;28;19926;-67
2022/10/08 03:19:50;;;;;;;;;;;11.80;99.90;;;;;;4992843;28;19926;-66
2022/10/08 03:22:16;;;;;;;;;;;11.80;99.90;;;;;;4992850;28;20398;-66
2022/10/08 03:24:42;;;;;;;;;;;11.80;99.90;;;;;;4991997;28;19933;-67
2022/10/08 03:27:07;;;;;;;;;;;11.80;99.90;;;;;;4991258;28;19926;-67
2022/10/08 03:29:33;;;;;;;;;;;11.80;99.90;;;;;;4993035;28;19965;-66
2022/10/08 03:31:58;;;;;;;;;;;11.70;99.90;;;;;;4991473;28;19925;-67
2022/10/08 03:34:24;;;;;;;;;;;11.70;99.90;;;;;;4975764;28;19926;-67
2022/10/08 03:36:50;;;;;;;;;;;11.70;99.90;;;;;;4992678;28;19968;-67
2022/10/08 03:39:15;;;;;;;;;;;11.70;99.90;;;;;;4991732;28;19930;-67
2022/10/08 03:41:41;;;;;;;;;;;11.70;99.90;;;;;;4992796;28;19926;-67
2022/10/08 03:44:08;;;;;;;;;;;11.70;99.90;;;;;;4991396;28;20375;-67
2022/10/08 03:46:33;;;;;;;;;;;11.70;99.90;;;;;;5024234;28;20283;-66
2022/10/08 03:48:59;;;;;;;;;;;11.70;99.90;;;;;;4992253;28;19933;-67
2022/10/08 03:51:25;;;;;;;;;;;11.70;99.90;;;;;;4992758;28;19933;-67
2022/10/08 03:53:50;;;;;;;;;;;11.70;99.90;;;;;;4991260;28;20335;-67
2022/10/08 03:56:17;;;;;;;;;;;11.70;99.90;;;;;;4991097;28;19933;-66
2022/10/08 03:58:43;;;;;;;;;;;11.70;99.90;;;;;;4991618;28;19932;-67
2022/10/08 04:01:13;;;;;;;;;;;11.70;99.90;;;;;;4992355;28;19926;-67
2022/10/08 04:03:39;;;;;;;;;;;11.70;99.90;;;;;;4991567;28;19925;-67
2022/10/08 04:06:05;;;;;;;;;;;11.70;99.90;;;;;;4990993;28;19936;-67
2022/10/08 04:08:31;;;;;;;;;;;11.70;99.90;;;;;;4992052;28;19926;-67
2022/10/08 04:11:00;;;;;;;;;;;11.70;99.90;;;;;;4992521;28;19926;-66
2022/10/08 04:13:26;;;;;;;;;;;11.70;99.90;;;;;;4992401;28;19926;-66
2022/10/08 04:15:51;;;;;;;;;;;11.70;99.90;;;;;;4992096;28;19930;-67
2022/10/08 04:18:17;;;;;;;;;;;11.70;99.90;;;;;;4990403;28;19929;-66
2022/10/08 04:20:43;;;;;;;;;;;11.70;99.90;;;;;;4991126;28;19975;-67
2022/10/08 04:23:08;;;;;;;;;;;11.70;99.90;;;;;;4991146;28;19986;-66
2022/10/08 04:25:35;;;;;;;;;;;11.60;99.90;;;;;;4991802;28;20370;-66
2022/10/08 04:28:01;;;;;;;;;;;11.60;99.90;;;;;;4991088;28;20320;-66
2022/10/08 04:30:28;;;;;;;;;;;11.60;99.90;;;;;;4990802;28;19949;-66
2022/10/08 04:32:54;;;;;;;;;;;11.60;99.90;;;;;;4991026;28;20017;-66
2022/10/08 04:35:20;;;;;;;;;;;11.50;99.90;;;;;;4991446;28;20021;-66
2022/10/08 04:37:45;;;;;;;;;;;11.50;99.90;;;;;;4990794;28;20012;-66
2022/10/08 04:40:11;;;;;;;;;;;11.50;99.90;;;;;;4990565;28;19926;-66
2022/10/08 04:42:37;;;;;;;;;;;11.50;99.90;;;;;;4991735;28;20021;-66
2022/10/08 04:45:02;;;;;;;;;;;11.50;99.90;;;;;;4991498;28;19926;-66
2022/10/08 04:47:28;;;;;;;;;;;11.50;99.90;;;;;;4991267;28;20032;-68
2022/10/08 04:49:53;;;;;;;;;;;11.40;99.90;;;;;;4991368;28;20005;-67
2022/10/08 04:52:19;;;;;;;;;;;11.40;99.90;;;;;;4990001;28;19926;-68
2022/10/08 04:54:45;;;;;;;;;;;11.40;99.90;;;;;;4990171;28;19930;-68
2022/10/08 04:57:10;;;;;;;;;;;11.40;99.90;;;;;;4991288;28;20398;-67
2022/10/08 04:59:36;;;;;;;;;;;11.30;99.90;;;;;;4991368;28;19926;-65
2022/10/08 05:02:01;;;;;;;;;;;11.30;99.90;;;;;;4991446;28;20100;-66
2022/10/08 05:04:27;;;;;;;;;;;11.30;99.90;;;;;;4991108;28;19926;-65
2022/10/08 05:06:52;;;;;;;;;;;11.30;99.90;;;;;;4989612;28;20016;-68
2022/10/08 05:09:18;;;;;;;;;;;11.20;99.90;;;;;;4989562;28;19926;-68
2022/10/08 05:11:44;;;;;;;;;;;11.20;99.90;;;;;;4990150;28;19925;-68
2022/10/08 05:14:09;;;;;;;;;;;11.20;99.90;;;;;;4989877;28;19926;-68
2022/10/08 05:16:35;;;;;;;;;;;11.20;99.90;;;;;;4990138;28;20294;-68
2022/10/08 05:19:01;;;;;;;;;;;11.20;99.90;;;;;;4991052;28;19926;-68
2022/10/08 05:21:28;;;;;;;;;;;11.10;99.90;;;;;;4991081;28;20329;-68
2022/10/08 05:23:57;;;;;;;;;;;11.10;99.90;;;;;;4991372;28;20292;-68
2022/10/08 05:26:24;;;;;;;;;;;11.10;99.90;;;;;;4989625;28;19976;-68
2022/10/08 05:28:52;;;;;;;;;;;11.10;99.90;;;;;;4991118;28;19969;-68
2022/10/08 05:31:18;;;;;;;;;;;11.10;99.90;;;;;;4990527;28;20399;-68
2022/10/08 05:33:43;;;;;;;;;;;11.00;99.90;;;;;;4990231;28;19975;-67
2022/10/08 05:36:19;;;;;;;;;;;11.00;99.90;;;;;;4990842;28;19945;-67
2022/10/08 05:38:45;;;;;;;;;;;11.00;99.90;;;;;;4990788;28;19934;-67
2022/10/08 05:41:15;;;;;;;;;;;11.00;99.90;;;;;;4990339;28;19925;-68
2022/10/08 05:43:41;;;;;;;;;;;10.90;99.90;;;;;;4990519;28;19926;-67
2022/10/08 05:46:07;;;;;;;;;;;10.90;99.90;;;;;;4989881;28;19986;-67
2022/10/08 05:48:32;;;;;;;;;;;11.00;99.90;;;;;;4990132;28;19984;-67
2022/10/08 05:51:09;;;;;;;;;;;10.90;99.90;;;;;;4989498;28;19933;-67
2022/10/08 05:53:35;;;;;;;;;;;10.90;99.90;;;;;;5005680;28;19932;-66
2022/10/08 05:56:02;;;;;;;;;;;10.90;99.90;;;;;;4990869;28;19933;-66
2022/10/08 05:58:27;;;;;;;;;;;10.90;99.90;;;;;;4989380;28;19926;-67
2022/10/08 06:01:00;;;;;;;;;;;10.90;99.90;;;;;;4989130;28;19933;-67
2022/10/08 06:03:26;;;;;;;;;;;10.90;99.90;;;;;;4990519;28;19929;-68
2022/10/08 06:05:52;;;;;;;;;;;10.90;99.90;;;;;;4990955;28;20021;-68
2022/10/08 06:08:18;;;;;;;;;;;10.90;99.90;;;;;;4973001;28;19932;-68
2022/10/08 06:10:53;;;;;;;;;;;10.90;99.90;;;;;;4989155;28;19921;-68
2022/10/08 06:13:19;;;;;;;;;;;10.90;99.90;;;;;;4988864;28;20300;-68
2022/10/08 06:15:55;;;;;;;;;;;11.00;99.90;;;;;;4990805;28;20339;-68
2022/10/08 06:18:21;;;;;;;;;;;11.00;99.90;;;;;;4988159;28;19926;-68
2022/10/08 06:20:47;;;;;;;;;;;11.00;99.90;;;;;;4990368;28;19972;-68
2022/10/08 06:23:12;;;;;;;;;;;11.00;99.90;;;;;;4988591;28;19926;-67
2022/10/08 06:25:38;;;;;;;;;;;11.10;99.90;;;;;;4989913;28;19922;-66
2022/10/08 06:28:03;;;;;;;;;;;11.10;99.90;;;;;;4989100;28;19973;-66
2022/10/08 06:30:29;;;;;;;;;;;11.10;99.90;;;;;;4972577;28;19948;-67
2022/10/08 06:32:54;;;;;;;;;;;11.10;99.90;;;;;;4988847;28;20373;-66
2022/10/08 06:35:20;;;;;;;;;;;11.10;99.90;;;;;;4988723;28;19921;-67
2022/10/08 06:37:46;;;;;;;;;;;11.10;99.90;;;;;;4957147;28;20025;-66
2022/10/08 06:40:12;;;;;;;;;;;11.20;99.90;;;;;;4989774;28;19926;-67
2022/10/08 06:42:37;;;;;;;;;;;11.20;99.90;;;;;;4989725;28;19922;-66
2022/10/08 06:45:03;;;;;;;;;;;11.20;99.90;;;;;;4989918;28;19925;-66
2022/10/08 06:47:29;;;;;;;;;;;11.30;99.90;;;;;;4988354;28;19949;-67
2022/10/08 06:49:54;;;;;;;;;;;11.40;99.90;;;;;;4989836;28;20286;-66
2022/10/08 06:52:20;;;;;;;;;;;11.60;99.90;;;;;;4988839;28;19926;-66
2022/10/08 06:54:45;;;;;;;;;;;11.80;99.90;;;;;;4972728;28;19921;-66
2022/10/08 06:57:11;;;;;;;;;;;11.90;99.90;;;;;;4990167;28;19983;-67
2022/10/08 06:59:37;;;;;;;;;;;12.00;99.90;;;;;;4989736;28;19926;-67
2022/10/08 07:02:02;;;;;;;;;;;12.00;99.90;;;;;;4989694;28;19925;-67
2022/10/08 07:04:28;;;;;;;;;;;12.00;99.90;;;;;;4988615;28;19926;-67
2022/10/08 07:06:53;;;;;;;;;;;11.90;99.90;;;;;;4989518;28;19934;-67
2022/10/08 07:09:19;;;;;;;;;;;11.90;99.90;;;;;;4972683;28;20013;-67
2022/10/08 07:11:45;;;;;;;;;;;11.90;99.90;;;;;;4989560;28;19985;-66
2022/10/08 07:14:10;;;;;;;;;;;11.80;99.90;;;;;;4972899;28;20009;-66
2022/10/08 07:16:36;;;;;;;;;;;11.80;99.90;;;;;;4990150;28;19926;-66
2022/10/08 07:19:02;;;;;;;;;;;11.70;99.90;;;;;;4988165;28;20462;-66
2022/10/08 07:21:28;;;;;;;;;;;11.80;99.90;;;;;;4988949;28;20333;-67
2022/10/08 07:23:53;;;;;;;;;;;11.80;99.90;;;;;;4989566;28;20006;-67
2022/10/08 07:26:24;;;;;;;;;;;11.80;99.90;;;;;;4988395;28;19925;-66
2022/10/08 07:28:51;;;;;;;;;;;11.90;99.90;;;;;;4990525;28;19932;-66
2022/10/08 07:31:18;;;;;;;;;;;12.30;99.90;;;;;;4992936;28;20329;-67
2022/10/08 07:33:44;;;;;;;;;;;13.40;99.90;;;;;;4992303;28;19979;-67
2022/10/08 07:36:10;;;;;;;;;;;14.40;99.90;;;;;;4991833;28;19925;-67
2022/10/08 07:38:36;;;;;;;;;;;15.70;99.90;;;;;;4991245;28;19933;-67
2022/10/08 07:41:02;;;;;;;;;;;16.70;99.90;;;;;;4991841;28;20244;-65
2022/10/08 07:43:28;;;;;;;;;;;;;;;;;;4991956;28;19926;-68
2022/10/08 07:45:54;;;;;;;;;;;17.40;99.90;;;;;;4991627;28;19930;-67
2022/10/08 07:48:19;;;;;;;;;;;18.20;99.90;;;;;;4992139;28;19926;-68
2022/10/08 07:50:45;;;;;;;;;;;17.60;99.90;;;;;;4992469;28;19936;-67
2022/10/08 07:53:10;;;;;;;;;;;16.90;99.90;;;;;;4992069;28;20409;-67
2022/10/08 07:55:36;;;;;;;;;;;16.50;99.90;;;;;;4991855;28;19933;-67
2022/10/08 07:58:02;;;;;;;;;;;17.10;99.90;;;;;;4992300;28;19926;-67
2022/10/08 08:00:28;;;;;;;;;;;18.10;99.90;;;;;;4991165;28;20285;-67
2022/10/08 08:02:53;;;;;;;;;;;18.90;99.90;;;;;;4992042;28;19932;-66
2022/10/08 08:05:19;;;;;;;;;;;;;;;;;;4991208;28;19925;-67
2022/10/08 08:07:45;;;;;;;;;;;19.60;99.90;;;;;;4991806;28;19936;-65
2022/10/08 08:10:10;;;;;;;;;;;20.50;99.40;;;;;;4992140;28;19925;-67
2022/10/08 08:12:36;;;;;;;;;;;21.00;99.80;;;;;;4991736;28;19926;-67
2022/10/08 08:15:02;;;;;;;;;;;21.20;98.80;;;;;;4990901;28;19926;-66
2022/10/08 08:17:27;;;;;;;;;;;21.70;99.40;;;;;;4991116;28;20366;-67
2022/10/08 08:19:53;;;;;;;;;;;22.00;98.20;;;;;;4990884;28;19938;-64
2022/10/08 08:22:18;;;;;;;;;;;22.40;96.80;;;;;;4990859;28;19932;-67
2022/10/08 08:24:44;;;;;;;;;;;22.50;95.90;;;;;;4991664;28;19926;-67
2022/10/08 08:27:10;;;;;;;;;;;22.70;96.20;;;;;;4990741;28;19993;-67
2022/10/08 08:29:35;;;;;;;;;;;22.80;96.40;;;;;;4974164;28;20379;-68
2022/10/08 08:32:01;;;;;;;;;;;22.60;95.60;;;;;;4991652;28;19930;-66
2022/10/08 08:34:26;;;;;;;;;;;22.40;95.70;;;;;;4991860;28;19926;-66
2022/10/08 08:36:52;;;;;;;;;;;21.80;96.70;;;;;;4989777;28;19925;-66
2022/10/08 08:39:19;;;;;;;;;;;21.10;97.30;;;;;;4990906;28;20012;-67
2022/10/08 08:41:55;;;;;;;;;;;20.00;97.70;;;;;;4988867;28;19930;-65
2022/10/08 08:44:21;;;;;;;;;;;19.00;98.80;;;;;;4991425;28;19933;-66
2022/10/08 08:46:53;;;;;;;;;;;18.30;99.90;;;;;;4990531;28;19926;-66
2022/10/08 08:49:21;;;;;;;;;;;17.70;99.90;;;;;;4991079;28;19977;-66
2022/10/08 08:51:47;;;;;;;;;;;17.30;99.90;;;;;;4973842;28;19933;-67
2022/10/08 08:54:13;;;;;;;;;;;16.90;99.90;;;;;;4991187;28;19926;-66
2022/10/08 08:56:38;;;;;;;;;;;16.60;99.90;;;;;;4990949;28;19925;-68
2022/10/08 08:59:07;;;;;;;;;;;16.40;99.90;;;;;;4991178;28;20306;-66
2022/10/08 09:01:35;;;;;;;;;;;16.20;99.90;;;;;;4990940;28;19926;-66
2022/10/08 09:04:08;;;;;;;;;;;16.30;99.90;;;;;;4989648;28;19933;-66
2022/10/08 09:06:34;;;;;;;;;;;16.50;99.90;;;;;;4991084;28;19926;-66
2022/10/08 09:09:04;;;;;;;;;;;16.50;99.90;;;;;;4973469;28;19926;-66
2022/10/08 09:11:29;;;;;;;;;;;16.60;99.90;;;;;;4991004;28;19986;-66
2022/10/08 09:14:02;;;;;;;;;;;16.60;99.90;;;;;;4990934;28;19929;-66
2022/10/08 09:16:27;;;;;;;;;;;16.70;99.90;;;;;;4990036;28;20008;-66
2022/10/08 09:18:53;;;;;;;;;;;16.70;99.90;;;;;;4973676;28;20063;-66
2022/10/08 09:21:19;;;;;;;;;;;16.60;99.90;;;;;;4990924;28;19926;-66
2022/10/08 09:23:46;;;;;;;;;;;16.70;99.90;;;;;;4989747;28;19930;-66
2022/10/08 09:26:20;;;;;;;;;;;16.70;99.90;;;;;;4991032;28;19926;-65
2022/10/08 09:28:48;;;;;;;;;;;16.70;99.90;;;;;;4990367;28;19941;-66
2022/10/08 09:31:16;;;;;;;;;;;16.80;99.90;;;;;;4990894;28;19998;-66
2022/10/08 09:33:42;;;;;;;;;;;16.80;99.90;;;;;;4989422;28;20149;-66
2022/10/08 09:36:08;;;;;;;;;;;16.70;99.90;;;;;;4990406;28;19929;-66
2022/10/08 09:38:37;;;;;;;;;;;16.60;99.90;;;;;;5004364;28;19930;-67
2022/10/08 09:41:03;;;;;;;;;;;16.50;99.90;;;;;;4986832;28;19982;-67
2022/10/08 09:43:29;;;;;;;;;;;16.40;99.90;;;;;;4987409;28;20349;-68
2022/10/08 09:45:56;;;;;;;;;;;16.30;99.90;;;;;;4990045;28;20036;-67
2022/10/08 09:48:22;;;;;;;;;;;16.20;99.90;;;;;;4989250;28;19979;-66
2022/10/08 09:50:52;;;;;;;;;;;16.30;99.90;;;;;;4964977;28;20509;-68
2022/10/08 09:53:19;;;;;;;;;;;16.20;99.90;;;;;;4968658;28;19921;-67
2022/10/08 09:55:50;;;;;;;;;;;16.00;99.90;;;;;;4987406;28;20408;-67
2022/10/08 09:58:17;;;;;;;;;;;15.90;99.90;;;;;;4984633;28;20551;-67
2022/10/08 10:00:43;;;;;;;;;;;15.70;99.90;;;;;;4985607;28;19936;-69
2022/10/08 10:03:15;;;;;;;;;;;15.60;99.90;;;;;;4985589;28;20088;-66
2022/10/08 10:05:41;;;;;;;;;;;15.60;99.90;;;;;;4987558;28;19921;-66
2022/10/08 10:08:26;;;;;;;;;;;15.60;99.90;;;;;;4988429;28;20292;-66
2022/10/08 10:10:53;;;;;;;;;;;15.60;99.90;;;;;;4987819;28;20013;-66
2022/10/08 10:13:20;;;;;;;;;;;15.60;99.90;;;;;;4989216;28;19956;-66
2022/10/08 10:15:51;;;;;;;;;;;15.80;99.90;;;;;;4988686;28;19925;-67
2022/10/08 10:18:19;;;;;;;;;;;15.90;99.90;;;;;;4988812;28;20409;-66
2022/10/08 10:20:47;;;;;;;;;;;16.00;99.90;;;;;;4989046;28;19937;-66
2022/10/08 10:23:19;;;;;;;;;;;16.10;99.90;;;;;;4985490;28;20017;-66
2022/10/08 10:25:49;;;;;;;;;;;16.20;99.90;;;;;;4986358;28;20698;-67
2022/10/08 10:28:18;;;;;;;;;;;16.30;99.90;;;;;;4989731;28;19992;-67
2022/10/08 10:30:56;;;;;;;;;;;16.50;99.90;;;;;;4981874;28;19956;-65
2022/10/08 10:33:27;;;;;;;;;;;16.50;99.90;;;;;;4988653;28;19933;-66
2022/10/08 10:35:57;;;;;;;;;;;16.60;99.90;;;;;;4988213;28;19926;-67
2022/10/08 10:38:27;;;;;;;;;;;16.60;99.40;;;;;;4989348;28;20263;-68
2022/10/08 10:40:53;;;;;;;;;;;16.70;99.70;;;;;;4986836;28;19979;-67
2022/10/08 10:43:38;;;;;;;;;;;16.70;99.90;;;;;;4988387;28;19976;-66
2022/10/08 10:46:36;;;;;;;;;;;16.70;99.80;;;;;;5002043;28;19933;-67
2022/10/08 10:49:01;;;;;;;;;;;16.80;99.90;;;;;;5021455;28;19926;-66
2022/10/08 10:51:45;;;;;;;;;;;16.90;99.90;;;;;;4987192;28;19926;-65
2022/10/08 10:54:21;;;;;;;;;;;17.00;99.90;;;;;;4987967;28;19926;-67
2022/10/08 10:56:53;;;;;;;;;;;17.10;99.90;;;;;;4988373;28;19955;-65
2022/10/08 10:59:19;;;;;;;;;;;17.00;99.90;;;;;;4989603;28;19930;-66
2022/10/08 11:01:52;;;;;;;;;;;16.70;99.90;;;;;;4989174;28;20420;-67
2022/10/08 11:04:18;;;;;;;;;;;16.40;99.90;;;;;;4990096;28;19988;-66
2022/10/08 11:06:55;;;;;;;;;;;16.10;99.90;;;;;;4991517;28;19936;-68
2022/10/08 11:09:43;;;;;;;;;;;15.90;99.90;;;;;;4991657;28;19926;-66
2022/10/08 11:12:09;;;;;;;;;;;15.80;99.90;;;;;;4992516;28;20024;-67
2022/10/08 11:14:36;;;;;;;;;;;15.60;99.90;;;;;;4991734;28;20021;-69
2022/10/08 11:17:22;;;;;;;;;;;15.50;99.90;;;;;;4991600;28;19933;-68
2022/10/08 11:19:57;;;;;;;;;;;15.50;99.90;;;;;;5002351;28;19925;-69
2022/10/08 11:22:37;;;;;;;;;;;15.60;99.90;;;;;;4991999;28;19926;-69
2022/10/08 11:25:09;;;;;;;;;;;15.60;99.90;;;;;;4991318;28;19933;-67
2022/10/08 11:27:37;;;;;;;;;;;15.70;99.90;;;;;;4992788;28;19981;-68
2022/10/08 11:30:10;;;;;;;;;;;15.60;99.90;;;;;;4993702;28;19991;-69
2022/10/08 11:32:36;;;;;;;;;;;15.50;99.90;;;;;;4993302;28;20017;-68
2022/10/08 11:35:11;;;;;;;;;;;15.40;99.90;;;;;;4992257;28;19933;-70
2022/10/08 11:37:42;;;;;;;;;;;15.30;99.90;;;;;;4991264;28;19926;-68
2022/10/08 11:40:26;;;;;;;;;;;15.20;99.90;;;;;;4992065;28;19932;-68
2022/10/08 11:42:51;;;;;;;;;;;15.00;99.90;;;;;;4992552;28;19933;-67
2022/10/08 11:45:23;;;;;;;;;;;14.90;99.90;;;;;;4991087;28;19921;-65
2022/10/08 11:47:53;;;;;;;;;;;14.80;99.90;;;;;;5024209;28;20287;-65
2022/10/08 11:50:23;;;;;;;;;;;14.70;99.90;;;;;;4991780;28;19921;-65
2022/10/08 11:52:49;;;;;;;;;;;14.60;99.90;;;;;;4991079;28;19925;-67
2022/10/08 11:55:23;;;;;;;;;;;14.50;99.90;;;;;;5007534;28;20122;-66
2022/10/08 11:57:56;;;;;;;;;;;14.50;99.90;;;;;;4992393;28;19926;-67
2022/10/08 12:00:37;;;;;;;;;;;14.50;99.90;;;;;;4991882;28;19930;-67
2022/10/08 12:03:18;;;;;;;;;;;14.50;99.90;;;;;;4991730;28;19926;-67
2022/10/08 12:05:45;;;;;;;;;;;14.60;99.90;;;;;;5024101;28;19932;-65
2022/10/08 12:08:31;;;;;;;;;;;14.70;99.90;;;;;;4992093;28;20059;-66
2022/10/08 12:11:16;;;;;;;;;;;14.90;99.90;;;;;;4991930;28;20024;-68
2022/10/08 12:13:42;;;;;;;;;;;15.10;99.90;;;;;;4990966;28;19925;-67
2022/10/08 12:16:07;;;;;;;;;;;15.20;99.90;;;;;;4991939;28;19926;-67
2022/10/08 12:18:41;;;;;;;;;;;15.30;99.90;;;;;;4991118;28;19926;-67
2022/10/08 12:21:15;;;;;;;;;;;15.40;99.90;;;;;;4990956;28;19948;-67
2022/10/08 12:23:42;;;;;;;;;;;15.50;99.90;;;;;;4990917;28;19925;-68
2022/10/08 12:26:09;;;;;;;;;;;15.50;99.90;;;;;;4991685;28;19926;-67
2022/10/08 12:28:34;;;;;;;;;;;15.60;99.90;;;;;;4992350;28;19986;-67
2022/10/08 12:31:13;;;;;;;;;;;15.60;99.90;;;;;;4990963;28;19926;-67
2022/10/08 12:33:39;;;;;;;;;;;15.60;99.90;;;;;;4992671;28;19926;-67
2022/10/08 12:36:05;;;;;;;;;;;15.60;99.90;;;;;;4990931;28;20037;-67
2022/10/08 12:38:50;;;;;;;;;;;15.50;99.90;;;;;;4992385;28;20012;-68
2022/10/08 12:41:21;;;;;;;;;;;15.50;99.90;;;;;;5007146;28;20311;-67
2022/10/08 12:43:59;;;;;;;;;;;15.40;99.90;;;;;;4991095;28;19933;-67
2022/10/08 12:46:27;;;;;;;;;;;15.40;99.90;;;;;;4992097;28;19925;-67
2022/10/08 12:49:13;;;;;;;;;;;15.20;99.90;;;;;;4991822;28;19925;-67
2022/10/08 12:51:58;;;;;;;;;;;15.00;99.90;;;;;;5022486;28;19929;-67
2022/10/08 12:54:25;;;;;;;;;;;14.90;99.90;;;;;;4993927;28;19937;-67
2022/10/08 12:56:51;;;;;;;;;;;15.00;99.90;;;;;;4995343;28;19932;-66
2022/10/08 12:59:18;;;;;;;;;;;14.90;99.90;;;;;;4992406;28;19985;-67
2022/10/08 13:01:45;;;;;;;;;;;14.90;99.90;;;;;;5026551;28;19926;-66
2022/10/08 13:04:18;;;;;;;;;;;14.90;99.90;;;;;;4992947;28;19930;-67
2022/10/08 13:06:44;;;;;;;;;;;14.90;99.90;;;;;;4992199;28;20279;-67
2022/10/08 13:09:29;;;;;;;;;;;14.80;99.90;;;;;;4990950;28;20345;-67
2022/10/08 13:11:55;;;;;;;;;;;14.70;99.90;;;;;;4991124;28;20392;-67
2022/10/08 13:14:25;;;;;;;;;;;14.70;99.90;;;;;;5022617;28;19925;-68
2022/10/08 13:16:50;;;;;;;;;;;14.70;99.90;;;;;;4991441;28;19933;-68
2022/10/08 13:19:17;;;;;;;;;;;14.70;99.90;;;;;;4990884;28;19934;-67
2022/10/08 13:21:52;;;;;;;;;;;14.80;99.90;;;;;;5022926;28;19973;-68
2022/10/08 13:24:19;;;;;;;;;;;14.90;99.90;;;;;;4990983;28;20302;-66
2022/10/08 13:26:47;;;;;;;;;;;15.00;99.90;;;;;;4990557;28;20337;-67
2022/10/08 13:29:25;;;;;;;;;;;15.00;99.90;;;;;;4989737;28;20004;-66
2022/10/08 13:32:00;;;;;;;;;;;15.10;99.90;;;;;;4990305;28;20308;-66
2022/10/08 13:34:28;;;;;;;;;;;15.10;99.90;;;;;;4990518;28;19926;-68
2022/10/08 13:36:55;;;;;;;;;;;15.10;99.90;;;;;;4989961;28;19926;-67
2022/10/08 13:39:26;;;;;;;;;;;15.20;99.90;;;;;;4989834;28;19970;-67
2022/10/08 13:41:54;;;;;;;;;;;15.20;99.90;;;;;;4991043;28;19994;-68
2022/10/08 13:44:20;;;;;;;;;;;15.20;99.90;;;;;;4973428;28;19965;-68
2022/10/08 13:46:45;;;;;;;;;;;15.20;99.90;;;;;;4990809;28;19984;-68
2022/10/08 13:49:19;;;;;;;;;;;15.20;99.90;;;;;;4989531;28;19926;-68
2022/10/08 13:51:44;;;;;;;;;;;15.20;99.90;;;;;;4990776;28;19927;-68
2022/10/08 13:54:10;;;;;;;;;;;15.20;99.90;;;;;;4989839;28;19932;-67
2022/10/08 13:56:36;;;;;;;;;;;15.20;99.90;;;;;;4990038;28;19926;-68
2022/10/08 13:59:01;;;;;;;;;;;15.20;99.90;;;;;;4989804;28;19925;-68
2022/10/08 14:01:27;;;;;;;;;;;15.20;99.90;;;;;;4972993;28;19932;-67
2022/10/08 14:03:52;;;;;;;;;;;15.20;99.90;;;;;;4989355;28;19930;-68
2022/10/08 14:06:18;;;;;;;;;;;15.10;99.90;;;;;;4989344;28;19983;-68
2022/10/08 14:08:44;;;;;;;;;;;15.10;99.90;;;;;;4988930;28;19948;-68
2022/10/08 14:11:09;;;;;;;;;;;15.10;99.90;;;;;;4973498;28;19926;-67
2022/10/08 14:13:35;;;;;;;;;;;15.00;99.90;;;;;;4989165;28;19937;-68
2022/10/08 14:16:00;;;;;;;;;;;15.00;99.90;;;;;;4989639;28;20330;-68
2022/10/08 14:18:26;;;;;;;;;;;14.90;99.90;;;;;;4973319;28;19932;-68
2022/10/08 14:20:51;;;;;;;;;;;14.90;99.90;;;;;;4990141;28;19933;-67
2022/10/08 14:23:19;;;;;;;;;;;14.90;99.90;;;;;;4990040;28;20024;-68
2022/10/08 14:25:44;;;;;;;;;;;14.90;99.90;;;;;;4990363;28;20016;-67